Time;durP1;ratioP1;P1;durP2;ratioP2;P2;SDS_P1;SDS_P2;PMS_P1;PMS_P2;Temp;Humidity;BMP_temperature;BMP_pressure;BME280_temperature;BME280_humidity;BME280_pressure;Samples;Min_cycle;Max_cycle;Signal;HPM_P1;HPM_P2
2022/02/23 00:00:41;;;;;;;19.73;17.87;;;;;;;9.67;71.38;100322.28;462634;113;923025;-78
2022/02/23 00:01:45;;;;;;;21.32;19.24;;;;;;;9.67;71.37;100320.41;463808;114;922812;-75
2022/02/23 00:02:49;;;;;;;27.82;22.82;;;;;;;9.67;71.30;100322.28;463371;113;930488;-76
2022/02/23 00:03:52;;;;;;;33.84;25.81;;;;;;;9.67;71.35;100323.12;463672;112;922941;-76
2022/02/23 00:04:55;;;;;;;41.11;29.02;;;;;;;9.67;71.39;100325.84;463659;113;922776;-77
2022/02/23 00:05:59;;;;;;;39.35;27.67;;;;;;;9.67;71.39;100328.56;463505;113;922687;-75
2022/02/23 00:07:02;;;;;;;42.26;28.52;;;;;;;9.69;71.38;100322.92;463598;113;922667;-76
2022/02/23 00:08:06;;;;;;;39.83;27.39;;;;;;;9.68;71.34;100323.96;463367;113;922715;-76
2022/02/23 00:09:09;;;;;;;39.33;28.38;;;;;;;9.68;71.35;100324.80;464150;113;922494;-76
2022/02/23 00:10:13;;;;;;;41.48;26.42;;;;;;;9.68;71.40;100327.52;464300;114;930813;-76
2022/02/23 00:11:16;;;;;;;45.88;28.69;;;;;;;9.69;71.34;100325.64;463474;113;923007;-76
2022/02/23 00:12:20;;;;;;;36.68;25.72;;;;;;;9.69;71.31;100323.76;463559;113;930416;-76
2022/02/23 00:13:25;;;;;;;36.79;26.96;;;;;;;9.68;71.32;100330.25;463842;113;922847;-76
2022/02/23 00:14:28;;;;;;;32.26;23.74;;;;;;;9.69;71.40;100321.03;463352;113;922544;-76
2022/02/23 00:15:31;;;;;;;29.52;23.30;;;;;;;9.69;71.38;100328.36;463341;113;923003;-76
2022/02/23 00:16:34;;;;;;;27.89;22.11;;;;;;;9.69;71.38;100325.64;463867;113;923212;-77
2022/02/23 00:17:38;;;;;;;24.83;20.74;;;;;;;9.69;71.31;100328.36;464065;114;922585;-76
2022/02/23 00:18:41;;;;;;;22.69;20.31;;;;;;;9.69;71.30;100323.76;463901;113;922666;-75
2022/02/23 00:19:45;;;;;;;20.90;18.73;;;;;;;9.68;71.35;100324.80;463760;113;922701;-77
2022/02/23 00:20:48;;;;;;;19.62;17.67;;;;;;;9.67;71.29;100325.84;462974;114;922423;-74
2022/02/23 00:21:52;;;;;;;19.41;17.36;;;;;;;9.68;71.33;100323.96;464330;114;924008;-76
2022/02/23 00:22:55;;;;;;;20.68;18.17;;;;;;;9.67;71.29;100311.39;463171;113;923045;-75
2022/02/23 00:23:58;;;;;;;19.41;17.45;;;;;;;9.66;71.33;100324.17;463239;113;923278;-75
2022/02/23 00:25:04;;;;;;;18.20;16.44;;;;;;;9.65;71.31;100321.69;463922;114;922634;-76
2022/02/23 00:26:08;;;;;;;20.46;17.49;;;;;;;9.65;71.31;100314.33;463808;113;922576;-75
2022/02/23 00:27:11;;;;;;;18.92;17.03;;;;;;;9.63;71.33;100311.84;462866;113;923236;-75
2022/02/23 00:28:14;;;;;;;22.69;17.69;;;;;;;9.65;71.35;100313.52;462468;114;922819;-76
2022/02/23 00:29:17;;;;;;;17.74;16.20;;;;;;;9.65;71.38;100316.23;463748;114;922627;-75
2022/02/23 00:30:22;;;;;;;20.86;17.36;;;;;;;9.65;71.39;100308.88;463776;113;922851;-76
2022/02/23 00:31:25;;;;;;;17.96;16.17;;;;;;;9.65;71.41;100311.60;463801;113;922602;-75
2022/02/23 00:32:30;;;;;;;18.83;16.86;;;;;;;9.65;71.42;100317.05;462744;113;930950;-75
2022/02/23 00:33:33;;;;;;;19.40;17.61;;;;;;;9.66;71.36;100315.16;463243;113;923010;-76
2022/02/23 00:34:37;;;;;;;18.66;16.51;;;;;;;9.66;71.37;100309.72;464252;114;923172;-75
2022/02/23 00:35:40;;;;;;;18.95;17.13;;;;;;;9.66;71.38;100320.61;464081;112;922597;-76
2022/02/23 00:36:44;;;;;;;19.23;17.24;;;;;;;9.65;71.41;100311.60;462843;114;922505;-76
2022/02/23 00:37:49;;;;;;;20.11;18.10;;;;;;;9.66;71.41;100310.56;463652;113;922829;-76
2022/02/23 00:38:52;;;;;;;20.00;17.99;;;;;;;9.66;71.35;100310.56;463617;114;923238;-76
2022/02/23 00:39:56;;;;;;;19.47;17.56;;;;;;;9.66;71.34;100302.39;459778;114;930887;-75
2022/02/23 00:40:59;;;;;;;18.37;16.61;;;;;;;9.67;71.39;100314.95;456446;114;922769;-75
2022/02/23 00:42:02;;;;;;;19.74;16.61;;;;;;;9.67;71.45;100312.23;456039;114;922531;-75
2022/02/23 00:43:06;;;;;;;19.62;17.79;;;;;;;9.67;71.39;100312.23;456181;114;923082;-74
2022/02/23 00:44:09;;;;;;;20.26;18.44;;;;;;;9.67;71.39;100316.84;456499;113;930682;-75
2022/02/23 00:45:13;;;;;;;20.59;17.86;;;;;;;9.68;71.39;100318.52;457529;114;928915;-75
2022/02/23 00:46:16;;;;;;;18.22;16.33;;;;;;;9.68;71.32;100319.36;456302;113;922630;-75
2022/02/23 00:47:20;;;;;;;22.46;18.25;;;;;;;9.68;71.33;100323.96;456923;113;930524;-75
2022/02/23 00:48:23;;;;;;;20.12;16.32;;;;;;;9.68;71.36;100323.96;454270;114;922905;-75
2022/02/23 00:49:28;;;;;;;18.08;16.50;;;;;;;9.68;71.35;100318.52;454394;114;922524;-76
2022/02/23 00:50:32;;;;;;;18.41;16.68;;;;;;;9.68;71.30;100322.08;455256;114;922981;-76
2022/02/23 00:51:35;;;;;;;17.44;15.85;;;;;;;9.67;71.30;100323.12;456084;114;922718;-76
2022/02/23 00:53:53;;;;;;;17.79;16.17;;;;;;;9.79;71.37;100317.84;470714;110;947249;-76
2022/02/23 00:54:57;;;;;;;16.19;14.74;;;;;;;9.70;71.35;100321.87;462250;113;922876;-76
2022/02/23 00:56:00;;;;;;;16.46;15.06;;;;;;;9.70;71.33;100325.44;462129;113;922561;-76
2022/02/23 00:57:04;;;;;;;18.91;15.58;;;;;;;9.71;71.30;100324.36;462983;113;923266;-77
2022/02/23 00:58:07;;;;;;;16.55;15.03;;;;;;;9.72;71.27;100328.75;463461;113;922530;-76
2022/02/23 00:59:11;;;;;;;16.82;15.28;;;;;;;9.73;71.23;100332.31;463006;113;923066;-76
2022/02/23 01:00:15;;;;;;;16.01;14.57;;;;;;;9.72;71.23;100334.20;461987;113;922519;-76
2022/02/23 01:01:18;;;;;;;17.05;15.33;;;;;;;9.72;71.20;100333.36;463089;113;930410;-76
2022/02/23 01:02:21;;;;;;;17.85;14.51;;;;;;;9.72;71.19;100333.36;464153;113;923348;-76
2022/02/23 01:03:25;;;;;;;17.29;15.51;;;;;;;9.72;71.19;100330.64;463087;113;930558;-75
2022/02/23 01:04:31;;;;;;;17.26;15.65;;;;;;;9.72;71.18;100331.48;462893;113;923117;-75
2022/02/23 01:05:35;;;;;;;17.23;14.97;;;;;;;9.71;71.15;100331.69;462067;113;922718;-75
2022/02/23 01:06:39;;;;;;;19.03;16.02;;;;;;;9.71;71.20;100335.25;462894;113;923053;-75
2022/02/23 01:07:42;;;;;;;16.84;14.89;;;;;;;9.71;71.21;100326.23;461348;113;923040;-76
2022/02/23 01:08:46;;;;;;;16.28;14.81;;;;;;;9.69;71.23;100326.48;463701;113;922657;-76
2022/02/23 01:09:49;;;;;;;17.12;15.44;;;;;;;9.70;71.23;100327.31;463323;113;922624;-75
2022/02/23 01:10:53;;;;;;;16.32;14.79;;;;;;;9.70;71.32;100327.31;463750;113;922688;-76
2022/02/23 01:11:56;;;;;;;15.66;14.07;;;;;;;9.69;71.35;100318.31;461822;113;922533;-76
2022/02/23 01:12:59;;;;;;;17.26;14.92;;;;;;;9.69;71.38;100326.48;462794;113;922902;-76
2022/02/23 01:14:03;;;;;;;16.28;14.66;;;;;;;9.70;71.40;100314.55;464291;113;922526;-75
2022/02/23 01:15:07;;;;;;;16.59;15.02;;;;;;;9.72;71.43;100317.03;461167;113;922805;-75
2022/02/23 01:16:11;;;;;;;17.00;15.34;;;;;;;9.72;71.43;100309.70;462413;113;922713;-76
2022/02/23 01:17:14;;;;;;;15.53;13.91;;;;;;;9.73;71.46;100308.66;462507;113;922912;-76
2022/02/23 01:18:17;;;;;;;17.17;15.23;;;;;;;9.75;71.44;100306.56;463788;113;922906;-75
2022/02/23 01:19:21;;;;;;;16.70;15.10;;;;;;;9.76;71.38;100299.23;464174;113;922639;-76
2022/02/23 01:20:24;;;;;;;16.84;15.23;;;;;;;9.75;71.38;100301.12;462832;113;922578;-75
2022/02/23 01:21:28;;;;;;;15.23;13.43;;;;;;;9.76;71.36;100299.23;463151;113;922814;-75
2022/02/23 01:22:31;;;;;;;14.88;13.50;;;;;;;9.76;71.30;100291.06;463066;113;922617;-76
2022/02/23 01:23:36;;;;;;;17.89;14.28;;;;;;;9.76;71.30;100291.06;462381;113;930690;-76
2022/02/23 01:24:39;;;;;;;15.86;14.50;;;;;;;9.76;71.25;100300.04;462102;113;922547;-74
2022/02/23 01:25:43;;;;;;;15.19;13.79;;;;;;;9.76;71.34;100304.67;464438;113;930442;-75
2022/02/23 01:26:46;;;;;;;16.06;14.19;;;;;;;9.76;71.32;100310.93;462636;113;923013;-76
2022/02/23 01:27:49;;;;;;;14.69;13.39;;;;;;;9.77;71.34;100306.32;463253;113;930471;-75
2022/02/23 01:28:53;;;;;;;15.53;14.10;;;;;;;9.76;71.29;100319.09;462086;113;922983;-76
2022/02/23 01:29:57;;;;;;;15.67;14.15;;;;;;;9.76;71.26;100318.29;464794;113;922775;-76
2022/02/23 01:31:01;;;;;;;15.15;13.92;;;;;;;9.75;71.23;100316.61;462340;113;922896;-76
2022/02/23 01:32:04;;;;;;;14.15;12.94;;;;;;;9.73;71.24;100313.26;463139;113;922608;-75
2022/02/23 01:33:08;;;;;;;15.93;14.55;;;;;;;9.73;71.29;100321.42;463508;113;922675;-76
2022/02/23 01:34:11;;;;;;;14.99;13.53;;;;;;;9.71;71.30;100315.35;462803;113;922581;-75
2022/02/23 01:35:15;;;;;;;17.02;15.32;;;;;;;9.69;71.37;100321.03;463270;113;922911;-75
2022/02/23 01:36:18;;;;;;;16.30;14.71;;;;;;;9.69;71.42;100323.76;462898;113;922685;-76
2022/02/23 01:37:22;;;;;;;17.44;15.64;;;;;;;9.69;71.39;100328.36;463458;113;930544;-75
2022/02/23 01:38:25;;;;;;;16.19;14.49;;;;;;;9.67;71.38;100322.28;462541;113;922720;-76
2022/02/23 01:39:29;;;;;;;17.41;15.65;;;;;;;9.67;71.43;100327.73;461498;113;923669;-76
2022/02/23 01:40:32;;;;;;;16.99;15.39;;;;;;;9.66;71.42;100337.78;462556;113;930497;-76
2022/02/23 01:41:36;;;;;;;17.24;15.58;;;;;;;9.66;71.42;100328.77;462535;113;923017;-76
2022/02/23 01:42:41;;;;;;;17.02;15.47;;;;;;;9.64;71.44;100334.45;464302;113;922935;-77
2022/02/23 01:43:44;;;;;;;15.50;14.07;;;;;;;9.65;71.49;100335.30;461753;113;923225;-76
2022/02/23 01:44:48;;;;;;;15.64;14.21;;;;;;;9.64;71.50;100329.02;463135;113;922507;-76
2022/02/23 01:45:51;;;;;;;16.88;15.30;;;;;;;9.65;71.50;100335.30;463344;113;930246;-76
2022/02/23 01:46:54;;;;;;;18.32;16.48;;;;;;;9.65;71.45;100341.55;461831;113;922949;-76
2022/02/23 01:47:57;;;;;;;16.64;15.09;;;;;;;9.63;71.45;100336.34;462480;113;922467;-76
2022/02/23 01:49:01;;;;;;;17.01;15.23;;;;;;;9.64;71.53;100345.34;463720;113;923102;-76
2022/02/23 01:50:07;;;;;;;16.56;15.04;;;;;;;9.62;71.49;100345.55;463104;113;922623;-76
2022/02/23 01:51:10;;;;;;;16.56;14.98;;;;;;;9.63;71.50;100349.95;462558;113;922551;-76
2022/02/23 01:52:14;;;;;;;16.51;15.01;;;;;;;9.63;71.52;100354.55;462372;113;923165;-74
2022/02/23 01:53:18;;;;;;;18.54;15.44;;;;;;;9.62;71.52;100348.27;464082;113;930572;-75
2022/02/23 01:54:21;;;;;;;18.14;16.31;;;;;;;9.63;71.56;100354.55;463514;113;922821;-75
2022/02/23 01:55:25;;;;;;;17.17;15.51;;;;;;;9.63;71.56;100351.83;461511;113;922729;-77
2022/02/23 01:56:28;;;;;;;18.31;16.11;;;;;;;9.63;71.55;100351.83;452734;114;922636;-76
2022/02/23 01:57:31;;;;;;;18.61;16.51;;;;;;;9.62;71.56;100350.16;443807;117;923418;-77
2022/02/23 01:58:35;;;;;;;17.65;15.86;;;;;;;9.62;71.52;100347.44;464180;113;930613;-76
2022/02/23 01:59:38;;;;;;;19.61;16.58;;;;;;;9.60;71.54;100344.92;462405;113;923051;-75
2022/02/23 02:00:42;;;;;;;20.95;16.76;;;;;;;9.61;71.59;100346.59;462929;113;923507;-74
2022/02/23 02:01:46;;;;;;;20.25;16.90;;;;;;;9.61;71.62;100343.03;462714;113;923069;-75
2022/02/23 02:02:50;;;;;;;18.91;17.15;;;;;;;9.59;71.65;100332.35;463716;113;922977;-75
2022/02/23 02:03:53;;;;;;;19.52;16.52;;;;;;;9.60;71.67;100338.63;460819;113;928282;-76
2022/02/23 02:04:56;;;;;;;17.61;15.99;;;;;;;9.59;71.70;100337.80;460350;113;923862;-73
2022/02/23 02:06:00;;;;;;;17.04;15.61;;;;;;;9.59;71.67;100337.80;462009;113;922763;-75
2022/02/23 02:07:03;;;;;;;17.84;16.19;;;;;;;9.59;71.69;100347.88;461983;113;922478;-76
2022/02/23 02:08:06;;;;;;;17.92;15.99;;;;;;;9.59;71.69;100339.71;461797;113;922875;-75
2022/02/23 02:09:10;;;;;;;17.67;15.91;;;;;;;9.59;71.69;100342.43;462017;113;930406;-73
2022/02/23 02:10:14;;;;;;;18.84;16.57;;;;;;;9.58;71.65;100347.04;464727;113;922516;-75
2022/02/23 02:11:17;;;;;;;18.37;16.57;;;;;;;9.57;71.66;100342.64;463079;113;922993;-76
2022/02/23 02:12:20;;;;;;;19.27;16.65;;;;;;;9.57;71.62;100348.08;462435;113;923226;-74
2022/02/23 02:13:23;;;;;;;18.02;16.04;;;;;;;9.56;71.64;100349.13;462733;113;923125;-75
2022/02/23 02:14:27;;;;;;;17.34;15.71;;;;;;;9.55;71.67;100350.17;463438;113;923305;-74
2022/02/23 02:15:30;;;;;;;17.62;16.07;;;;;;;9.54;71.68;100348.48;461173;113;922628;-76
2022/02/23 02:16:33;;;;;;;18.28;16.50;;;;;;;9.54;71.70;100353.94;462632;113;923028;-76
2022/02/23 02:17:37;;;;;;;17.07;15.35;;;;;;;9.54;71.62;100361.27;463891;113;930607;-74
2022/02/23 02:18:40;;;;;;;16.57;14.98;;;;;;;9.52;71.64;100358.77;463985;113;923071;-74
2022/02/23 02:19:44;;;;;;;18.29;16.40;;;;;;;9.52;71.56;100356.05;462365;113;930665;-76
2022/02/23 02:20:47;;;;;;;16.73;15.14;;;;;;;9.50;71.59;100360.02;463056;113;923105;-75
2022/02/23 02:21:58;;;;;;;16.55;14.99;;;;;;;9.49;71.64;100361.91;463986;113;922896;-75
2022/02/23 02:23:01;;;;;;;16.67;15.09;;;;;;;9.48;71.69;100364.86;463471;113;923261;-74
2022/02/23 02:24:05;;;;;;;16.17;14.84;;;;;;;9.47;71.70;100364.02;461639;113;922916;-74
2022/02/23 02:25:09;;;;;;;17.16;15.61;;;;;;;9.47;71.73;100360.47;463244;113;930605;-74
2022/02/23 02:26:14;;;;;;;17.67;16.08;;;;;;;9.48;71.79;100367.59;462484;113;930566;-74
2022/02/23 02:27:17;;;;;;;19.75;17.70;;;;;;;9.48;71.75;100360.23;462578;113;922579;-74
2022/02/23 02:28:21;;;;;;;17.11;15.53;;;;;;;9.48;71.73;100364.86;462384;113;922565;-74
2022/02/23 02:29:25;;;;;;;15.95;14.61;;;;;;;9.48;71.73;100362.95;462458;113;930559;-76
2022/02/23 02:30:28;;;;;;;15.93;14.50;;;;;;;9.47;71.74;100364.02;462048;113;930565;-76
2022/02/23 02:31:32;;;;;;;14.00;12.72;;;;;;;9.47;71.76;100372.19;462118;113;922833;-75
2022/02/23 02:32:35;;;;;;;14.82;13.49;;;;;;;9.46;71.73;100373.23;461519;113;922615;-74
2022/02/23 02:33:38;;;;;;;14.69;13.42;;;;;;;9.45;71.67;100368.83;462091;113;923107;-75
2022/02/23 02:34:42;;;;;;;14.83;13.46;;;;;;;9.43;71.68;100368.20;461727;113;922571;-74
2022/02/23 02:35:45;;;;;;;14.28;12.98;;;;;;;9.41;71.77;100370.31;462018;113;922697;-75
2022/02/23 02:36:49;;;;;;;14.76;13.32;;;;;;;9.41;71.78;100372.20;462636;113;922756;-75
2022/02/23 02:37:52;;;;;;;15.06;13.68;;;;;;;9.40;71.82;100371.36;463876;113;922601;-74
2022/02/23 02:38:56;;;;;;;14.47;12.98;;;;;;;9.41;71.89;100374.92;462599;113;923108;-75
2022/02/23 02:39:59;;;;;;;13.51;12.28;;;;;;;9.41;71.88;100364.88;463081;113;930480;-76
2022/02/23 02:41:02;;;;;;;14.65;13.24;;;;;;;9.42;71.87;100365.71;462532;113;922662;-75
2022/02/23 02:42:06;;;;;;;13.92;12.71;;;;;;;9.43;71.82;100361.91;463034;113;922902;-74
2022/02/23 02:43:10;;;;;;;14.16;12.72;;;;;;;9.43;71.87;100360.03;463456;113;922793;-75
2022/02/23 02:44:14;;;;;;;14.15;12.62;;;;;;;9.45;71.85;100359.83;463226;113;930536;-75
2022/02/23 02:45:18;;;;;;;14.38;12.98;;;;;;;9.45;71.83;100365.27;462511;113;922687;-74
2022/02/23 02:46:23;;;;;;;13.79;12.46;;;;;;;9.45;71.86;100362.55;461153;113;923233;-74
2022/02/23 02:47:26;;;;;;;15.05;13.31;;;;;;;9.47;71.86;100357.74;462499;113;922505;-75
2022/02/23 02:48:29;;;;;;;15.41;12.62;;;;;;;9.47;71.83;100355.02;447374;117;923101;-73
2022/02/23 02:49:33;;;;;;;14.51;13.18;;;;;;;9.47;71.84;100358.58;462710;113;923104;-75
2022/02/23 02:50:37;;;;;;;15.24;13.40;;;;;;;9.48;71.94;100351.25;464535;113;922527;-76
2022/02/23 02:51:41;;;;;;;14.93;13.51;;;;;;;9.48;71.87;100356.70;461905;113;922771;-74
2022/02/23 02:52:44;;;;;;;13.75;12.46;;;;;;;9.48;71.86;100357.50;462711;113;928788;-76
2022/02/23 02:53:48;;;;;;;13.43;12.29;;;;;;;9.49;71.85;100361.91;461935;113;922560;-74
2022/02/23 02:54:51;;;;;;;14.67;13.18;;;;;;;9.49;71.84;100363.79;463186;113;930342;-75
2022/02/23 02:55:54;;;;;;;14.80;13.27;;;;;;;9.49;71.82;100366.52;462173;113;923081;-75
2022/02/23 02:57:00;;;;;;;14.97;13.13;;;;;;;9.48;71.92;100354.78;447196;116;922653;-75
2022/02/23 02:58:03;;;;;;;14.77;13.28;;;;;;;9.49;71.84;100364.62;463359;113;922639;-76
2022/02/23 02:59:07;;;;;;;14.86;13.36;;;;;;;9.50;71.86;100357.30;464038;113;930939;-75
2022/02/23 03:00:12;;;;;;;14.48;13.19;;;;;;;9.50;71.87;100362.75;461685;113;922624;-75
2022/02/23 03:01:16;;;;;;;16.35;14.85;;;;;;;9.50;71.92;100363.59;463184;113;922439;-74
2022/02/23 03:02:19;;;;;;;16.21;14.32;;;;;;;9.51;71.82;100373.43;462008;113;930814;-75
2022/02/23 03:03:23;;;;;;;16.36;14.69;;;;;;;9.51;71.81;100367.98;462224;113;930386;-74
2022/02/23 03:04:26;;;;;;;16.91;15.06;;;;;;;9.52;71.81;100371.55;462504;113;922549;-74
2022/02/23 03:05:31;;;;;;;15.57;13.98;;;;;;;9.52;71.85;100372.39;463261;113;930540;-74
2022/02/23 03:06:35;;;;;;;16.84;15.17;;;;;;;9.53;71.84;100370.50;464020;113;922822;-73
2022/02/23 03:07:39;;;;;;;16.14;14.55;;;;;;;9.53;71.60;100367.78;462821;113;922522;-74
2022/02/23 03:08:42;;;;;;;16.77;15.01;;;;;;;9.53;71.60;100367.78;462833;113;922545;-73
2022/02/23 03:09:46;;;;;;;16.03;14.54;;;;;;;9.52;71.71;100372.39;446705;118;923009;-75
2022/02/23 03:10:49;;;;;;;16.71;15.10;;;;;;;9.52;71.72;100369.66;453105;116;922696;-75
2022/02/23 03:11:52;;;;;;;19.29;15.91;;;;;;;9.53;71.69;100365.06;464059;113;930491;-73
2022/02/23 03:12:56;;;;;;;16.06;14.53;;;;;;;9.53;71.69;100365.90;462839;113;923651;-75
2022/02/23 03:13:59;;;;;;;17.00;15.39;;;;;;;9.53;71.66;100365.06;462305;113;922944;-74
2022/02/23 03:15:05;;;;;;;18.58;15.03;;;;;;;9.54;71.66;100363.98;463532;113;923471;-75
2022/02/23 03:16:11;;;;;;;18.20;16.05;;;;;;;9.53;71.65;100368.63;462434;113;923038;-74
2022/02/23 03:17:14;;;;;;;17.57;15.04;;;;;;;9.52;71.67;100364.22;460617;113;930612;-76
2022/02/23 03:18:17;;;;;;;19.01;14.11;;;;;;;9.52;71.69;100364.22;464008;113;922529;-74
2022/02/23 03:19:21;;;;;;;16.86;14.28;;;;;;;9.52;71.68;100361.50;463115;113;923081;-75
2022/02/23 03:20:24;;;;;;;16.85;15.19;;;;;;;9.52;71.69;100366.94;460918;113;922791;-75
2022/02/23 03:21:28;;;;;;;16.61;14.42;;;;;;;9.52;71.74;100369.66;462083;113;923440;-75
2022/02/23 03:22:31;;;;;;;17.14;15.28;;;;;;;9.52;71.71;100366.94;463082;113;923200;-74
2022/02/23 03:23:35;;;;;;;15.45;14.01;;;;;;;9.52;71.68;100364.22;462418;113;922596;-74
2022/02/23 03:24:38;;;;;;;17.23;14.76;;;;;;;9.52;71.62;100368.83;462828;113;922755;-75
2022/02/23 03:25:42;;;;;;;16.17;14.72;;;;;;;9.52;71.64;100368.83;461984;113;922926;-74
2022/02/23 03:26:45;;;;;;;16.31;14.83;;;;;;;9.51;71.72;100358.98;464408;113;923574;-74
2022/02/23 03:27:49;;;;;;;18.59;16.67;;;;;;;9.51;71.73;100365.27;463066;113;930579;-77
2022/02/23 03:28:52;;;;;;;17.46;15.31;;;;;;;9.51;71.69;100364.42;463545;113;923116;-75
2022/02/23 03:29:55;;;;;;;20.09;15.54;;;;;;;9.50;71.71;100358.14;463675;113;923500;-75
2022/02/23 03:30:59;;;;;;;16.89;15.21;;;;;;;9.49;71.74;100359.19;463460;113;930744;-71
2022/02/23 03:32:03;;;;;;;18.02;15.84;;;;;;;9.48;71.77;100357.50;462547;113;922638;-76
2022/02/23 03:33:09;;;;;;;17.62;15.85;;;;;;;9.48;71.68;100354.78;462867;113;922575;-75
2022/02/23 03:34:12;;;;;;;19.56;17.73;;;;;;;9.46;71.71;100361.51;462864;113;922563;-74
2022/02/23 03:35:15;;;;;;;19.41;17.50;;;;;;;9.45;71.73;100370.72;463980;113;922561;-74
2022/02/23 03:36:20;;;;;;;19.29;17.42;;;;;;;9.43;71.78;100373.64;461865;113;922870;-74
2022/02/23 03:37:23;;;;;;;20.06;18.05;;;;;;;9.42;71.72;100371.16;463507;113;930672;-75
2022/02/23 03:38:28;;;;;;;20.28;18.42;;;;;;;9.41;71.81;100372.20;463407;113;930527;-74
2022/02/23 03:39:32;;;;;;;19.71;17.68;;;;;;;9.40;71.87;100365.08;464049;113;923061;-75
2022/02/23 03:40:38;;;;;;;18.69;17.11;;;;;;;9.39;71.87;100375.13;462844;113;922660;-75
2022/02/23 03:41:41;;;;;;;21.58;19.51;;;;;;;9.39;71.90;100380.56;461991;113;922547;-73
2022/02/23 03:42:45;;;;;;;21.13;19.17;;;;;;;9.39;71.87;100379.72;463608;113;923027;-73
2022/02/23 03:43:48;;;;;;;19.83;17.99;;;;;;;9.38;71.88;100376.16;461884;113;922490;-75
2022/02/23 03:44:51;;;;;;;20.28;18.46;;;;;;;9.37;71.98;100377.20;462084;113;930501;-74
2022/02/23 03:45:55;;;;;;;18.32;16.76;;;;;;;9.36;72.03;100370.12;462114;113;922831;-73
2022/02/23 03:46:58;;;;;;;20.64;18.30;;;;;;;9.35;72.01;100365.72;463634;113;922944;-75
2022/02/23 03:48:02;;;;;;;19.15;17.44;;;;;;;9.36;72.03;100372.84;461780;113;923045;-75
2022/02/23 03:49:05;;;;;;;18.00;16.25;;;;;;;9.35;72.01;100367.60;463765;113;922698;-74
2022/02/23 03:50:10;;;;;;;20.19;17.39;;;;;;;9.34;72.11;100371.36;461947;113;930670;-74
2022/02/23 03:51:15;;;;;;;20.19;18.21;;;;;;;9.33;72.12;100369.69;462074;113;922807;-74
2022/02/23 03:52:21;;;;;;;18.18;16.45;;;;;;;9.32;72.19;100368.04;452893;114;923118;-75
2022/02/23 03:53:24;;;;;;;19.90;17.20;;;;;;;9.32;72.23;100374.29;452489;113;922728;-75
2022/02/23 03:54:27;;;;;;;20.75;18.41;;;;;;;9.32;72.26;100374.29;463398;113;922735;-74
2022/02/23 03:55:31;;;;;;;18.91;17.09;;;;;;;9.31;72.27;100374.52;462979;113;922590;-74
2022/02/23 03:56:42;;;;;;;19.56;17.92;;;;;;;9.31;72.25;100382.69;463081;113;930685;-76
2022/02/23 03:57:45;;;;;;;19.63;17.66;;;;;;;9.31;72.29;100378.08;462000;113;923626;-74
2022/02/23 03:58:49;;;;;;;19.73;17.79;;;;;;;9.29;72.26;100374.72;463859;113;923006;-76
2022/02/23 03:59:52;;;;;;;19.41;17.48;;;;;;;9.29;72.31;100374.72;463152;113;922686;-74
2022/02/23 04:00:55;;;;;;;22.79;19.06;;;;;;;9.28;72.29;100378.48;461662;113;930742;-75
2022/02/23 04:01:59;;;;;;;20.86;18.91;;;;;;;9.27;72.31;100375.97;464391;113;922623;-75
2022/02/23 04:03:03;;;;;;;19.82;17.98;;;;;;;9.25;72.38;100376.20;463784;113;923197;-74
2022/02/23 04:04:07;;;;;;;21.23;18.84;;;;;;;9.25;72.41;100378.09;462619;113;923601;-74
2022/02/23 04:05:11;;;;;;;20.86;18.62;;;;;;;9.24;72.35;100373.69;462068;113;930493;-74
2022/02/23 04:06:15;;;;;;;20.72;18.68;;;;;;;9.23;72.35;100375.56;463015;113;922588;-74
2022/02/23 04:07:18;;;;;;;20.92;18.99;;;;;;;9.21;72.36;100383.09;464088;113;922905;-75
2022/02/23 04:08:22;;;;;;;20.01;18.19;;;;;;;9.18;72.33;100378.92;461497;113;922616;-75
2022/02/23 04:09:27;;;;;;;21.07;18.19;;;;;;;9.16;72.39;100378.29;461091;113;922601;-74
2022/02/23 04:10:31;;;;;;;21.41;19.46;;;;;;;9.14;72.39;100372.23;462873;113;922718;-74
2022/02/23 04:11:34;;;;;;;19.84;18.06;;;;;;;9.12;72.40;100373.48;462972;113;922477;-75
2022/02/23 04:12:38;;;;;;;20.01;18.26;;;;;;;9.10;72.45;100390.00;460911;113;922691;-75
2022/02/23 04:13:41;;;;;;;19.49;17.84;;;;;;;9.07;72.40;100395.04;462484;113;923194;-75
2022/02/23 04:14:44;;;;;;;20.17;18.17;;;;;;;9.05;72.42;100397.95;462074;113;922604;-75
2022/02/23 04:15:48;;;;;;;21.71;19.49;;;;;;;9.02;72.51;100392.11;462384;113;922596;-75
2022/02/23 04:16:51;;;;;;;20.08;18.19;;;;;;;9.00;72.61;100391.47;462897;113;922658;-73
2022/02/23 04:17:55;;;;;;;21.26;19.17;;;;;;;8.99;72.64;100395.23;462151;113;922642;-75
2022/02/23 04:18:58;;;;;;;20.39;18.57;;;;;;;8.96;72.61;100395.66;464057;113;930747;-75
2022/02/23 04:20:02;;;;;;;19.65;17.82;;;;;;;8.93;72.71;100402.34;463343;113;930669;-75
2022/02/23 04:21:05;;;;;;;19.19;17.56;;;;;;;8.92;72.66;100397.13;463660;113;930662;-76
2022/02/23 04:22:09;;;;;;;20.68;18.62;;;;;;;8.90;72.71;100396.49;463071;113;922990;-76
2022/02/23 04:23:13;;;;;;;19.48;17.69;;;;;;;8.90;72.78;100396.49;463862;113;922649;-75
2022/02/23 04:24:16;;;;;;;20.43;18.36;;;;;;;8.90;72.77;100394.61;462605;113;922704;-74
2022/02/23 04:25:19;;;;;;;20.92;19.03;;;;;;;8.90;72.83;100389.17;462540;113;922764;-76
2022/02/23 04:26:25;;;;;;;20.29;18.38;;;;;;;8.90;72.82;100388.34;461764;113;923035;-75
2022/02/23 04:27:29;;;;;;;19.59;17.94;;;;;;;8.90;72.80;100389.17;463508;113;922912;-76
2022/02/23 04:28:32;;;;;;;20.27;18.52;;;;;;;8.90;72.76;100386.46;463609;113;922687;-74
2022/02/23 04:29:36;;;;;;;20.32;18.43;;;;;;;8.91;72.77;100387.30;461938;113;923709;-75
2022/02/23 04:30:40;;;;;;;19.35;17.48;;;;;;;8.92;72.76;100391.70;462806;113;922627;-74
2022/02/23 04:31:43;;;;;;;19.56;17.69;;;;;;;8.92;72.79;100397.13;462160;113;923152;-73
2022/02/23 04:32:47;;;;;;;19.43;17.51;;;;;;;8.95;72.81;100413.02;462409;113;922843;-73
2022/02/23 04:33:50;;;;;;;19.02;17.41;;;;;;;8.96;72.74;100418.26;462147;113;922968;-74
2022/02/23 04:34:54;;;;;;;18.15;16.49;;;;;;;8.98;72.71;100426.22;463261;113;922943;-75
2022/02/23 04:35:57;;;;;;;18.21;16.68;;;;;;;9.00;72.66;100426.83;462067;113;930609;-72
2022/02/23 04:37:00;;;;;;;18.25;16.54;;;;;;;9.01;72.58;100425.78;461293;113;922617;-74
2022/02/23 04:38:04;;;;;;;17.82;16.22;;;;;;;9.02;72.51;100432.91;462091;113;930708;-75
2022/02/23 04:39:08;;;;;;;16.44;15.08;;;;;;;9.01;72.38;100431.23;462639;113;923050;-75
2022/02/23 04:40:12;;;;;;;16.84;15.35;;;;;;;9.01;72.34;100423.91;461844;113;923028;-76
2022/02/23 04:41:16;;;;;;;17.47;15.89;;;;;;;9.02;72.38;100424.75;462254;113;930682;-74
2022/02/23 04:42:19;;;;;;;15.80;14.45;;;;;;;9.01;72.20;100426.63;463704;113;923236;-75
2022/02/23 04:43:22;;;;;;;15.67;14.33;;;;;;;9.00;72.13;100424.11;462831;113;922538;-74
2022/02/23 04:44:26;;;;;;;16.72;15.29;;;;;;;9.00;72.04;100422.23;463110;113;922757;-75
2022/02/23 04:45:31;;;;;;;16.79;15.27;;;;;;;9.01;72.09;100431.23;461795;113;922634;-75
2022/02/23 04:46:35;;;;;;;16.02;14.47;;;;;;;9.01;72.06;100428.50;462197;113;922478;-74
2022/02/23 04:47:38;;;;;;;16.02;14.64;;;;;;;9.02;72.05;100428.30;462776;113;923091;-75
2022/02/23 04:48:44;;;;;;;15.41;14.28;;;;;;;9.03;71.97;100434.58;461373;113;922528;-74
2022/02/23 04:49:47;;;;;;;17.03;15.44;;;;;;;9.05;71.96;100437.91;462712;113;922897;-77
2022/02/23 04:50:50;;;;;;;16.79;15.32;;;;;;;9.05;71.92;100438.75;463151;113;922548;-75